CPA705 VHHH-VTBS
Flight info
| Callsign | CPA705 |
|---|---|
| Flight time | 2h 22m |
| Altitude | 34000 |
| Route | PECAN V10 SIKOU/K0880S1035 A202 ASSAD/K0876F340 A202 VILAO/N0473F340 A202 RAMEI W42 PAKRI Y13 RUKSA EASTE1C |
| Aircraft | B77W/H-SDE3GHIJ1J2J3J4J7M3P2RWXY/LB1D1 |
Departure
| Time | 2026-05-08 05:44 |
|---|---|
| Airport | Hong Kong International Airport (VHHH) |
Arrival
| Time | 2026-05-08 08:07 |
|---|---|
| Airport | Suvarnabhumi Airport (VTBS) |
| Time | Latitude | Longitude | Altitude | Speed | Heading |
|---|---|---|---|---|---|
| 2026-05-08 04:55 | 22.31607 | 113.93281 | 42 ft | 0 kts | 105° |
| 2026-05-08 05:34 | 22.31610 | 113.93269 | 42 ft | 4 kts | 105° |
| 2026-05-08 05:35 | 22.31617 | 113.93241 | 42 ft | 4 kts | 105° |
| 2026-05-08 05:35 | 22.31623 | 113.93217 | 40 ft | 3 kts | 106° |
| 2026-05-08 05:35 | 22.31631 | 113.93197 | 37 ft | 4 kts | 140° |
| 2026-05-08 05:35 | 22.31647 | 113.93189 | 38 ft | 4 kts | 180° |
| 2026-05-08 05:36 | 22.31669 | 113.93190 | 39 ft | 4 kts | 177° |
| 2026-05-08 05:36 | 22.31694 | 113.93185 | 40 ft | 4 kts | 156° |
| 2026-05-08 05:36 | 22.31711 | 113.93177 | 40 ft | 0 kts | 161° |
| 2026-05-08 05:39 | 22.31694 | 113.93183 | 66 ft | 4 kts | 164° |
| 2026-05-08 05:39 | 22.31665 | 113.93183 | 42 ft | 4 kts | 188° |
| 2026-05-08 05:39 | 22.31635 | 113.93172 | 42 ft | 5 kts | 206° |
| 2026-05-08 05:39 | 22.31610 | 113.93147 | 42 ft | 5 kts | 232° |
| 2026-05-08 05:40 | 22.31594 | 113.93113 | 42 ft | 5 kts | 248° |
| 2026-05-08 05:40 | 22.31582 | 113.93076 | 42 ft | 5 kts | 251° |
| 2026-05-08 05:40 | 22.31570 | 113.93038 | 42 ft | 5 kts | 251° |
| 2026-05-08 05:40 | 22.31558 | 113.93000 | 42 ft | 5 kts | 251° |
| 2026-05-08 05:41 | 22.31556 | 113.92960 | 42 ft | 6 kts | 287° |
| 2026-05-08 05:41 | 22.31585 | 113.92929 | 42 ft | 6 kts | 329° |
| 2026-05-08 05:41 | 22.31626 | 113.92909 | 42 ft | 7 kts | 340° |
| 2026-05-08 05:41 | 22.31669 | 113.92892 | 42 ft | 7 kts | 340° |
| 2026-05-08 05:42 | 22.31713 | 113.92876 | 42 ft | 7 kts | 341° |
| 2026-05-08 05:42 | 22.31781 | 113.92848 | 42 ft | 14 kts | 335° |
| 2026-05-08 05:42 | 22.31867 | 113.92805 | 42 ft | 14 kts | 339° |
| 2026-05-08 05:42 | 22.31956 | 113.92772 | 41 ft | 14 kts | 340° |
| 2026-05-08 05:43 | 22.32027 | 113.92737 | 40 ft | 8 kts | 312° |
| 2026-05-08 05:43 | 22.32025 | 113.92675 | 41 ft | 11 kts | 250° |
| 2026-05-08 05:43 | 22.31963 | 113.92489 | 43 ft | 43 kts | 251° |
| 2026-05-08 05:43 | 22.31788 | 113.91945 | 41 ft | 116 kts | 251° |
| 2026-05-08 05:44 | 22.31447 | 113.90883 | 51 ft | 179 kts | 250° |
| 2026-05-08 05:44 | 22.31015 | 113.89574 | 664 ft | 187 kts | 252° |
| 2026-05-08 05:44 | 22.30591 | 113.88226 | 1418 ft | 194 kts | 251° |
| 2026-05-08 05:44 | 22.30122 | 113.86774 | 1779 ft | 219 kts | 251° |
| 2026-05-08 05:45 | 22.29599 | 113.85155 | 2311 ft | 233 kts | 251° |
| 2026-05-08 05:45 | 22.29060 | 113.83486 | 3095 ft | 237 kts | 251° |
| 2026-05-08 05:45 | 22.28514 | 113.81799 | 3951 ft | 238 kts | 251° |
| 2026-05-08 05:45 | 22.27966 | 113.80105 | 4735 ft | 240 kts | 251° |
| 2026-05-08 05:46 | 22.27412 | 113.78393 | 5536 ft | 243 kts | 251° |
| 2026-05-08 05:46 | 22.26855 | 113.76669 | 6350 ft | 244 kts | 251° |
| 2026-05-08 05:46 | 22.26287 | 113.74922 | 7061 ft | 247 kts | 249° |
| 2026-05-08 05:46 | 22.25379 | 113.73349 | 7701 ft | 252 kts | 224° |
| 2026-05-08 05:47 | 22.23954 | 113.72263 | 8372 ft | 254 kts | 212° |
| 2026-05-08 05:47 | 22.22392 | 113.71369 | 9056 ft | 258 kts | 197° |
| 2026-05-08 05:47 | 22.20600 | 113.71285 | 9734 ft | 265 kts | 168° |
| 2026-05-08 05:47 | 22.18849 | 113.71980 | 10356 ft | 269 kts | 159° |
| 2026-05-08 05:48 | 22.17112 | 113.72789 | 11000 ft | 274 kts | 159° |
| 2026-05-08 05:48 | 22.15348 | 113.73608 | 11757 ft | 277 kts | 159° |
| 2026-05-08 05:48 | 22.13564 | 113.74432 | 12601 ft | 279 kts | 159° |
| 2026-05-08 05:48 | 22.11816 | 113.75371 | 13387 ft | 285 kts | 147° |
| 2026-05-08 05:49 | 22.10250 | 113.76698 | 14082 ft | 293 kts | 142° |
| 2026-05-08 05:49 | 22.08675 | 113.78160 | 14849 ft | 296 kts | 142° |
| 2026-05-08 05:49 | 22.07182 | 113.79656 | 15566 ft | 300 kts | 128° |
| 2026-05-08 05:49 | 22.06245 | 113.81689 | 16215 ft | 307 kts | 104° |
| 2026-05-08 05:50 | 22.05792 | 113.83967 | 16862 ft | 316 kts | 102° |
| 2026-05-08 05:50 | 22.05342 | 113.86379 | 17157 ft | 340 kts | 102° |
| 2026-05-08 05:50 | 22.04844 | 113.88973 | 17359 ft | 366 kts | 102° |
| 2026-05-08 05:50 | 22.04262 | 113.91731 | 17525 ft | 387 kts | 109° |
| 2026-05-08 05:51 | 22.02996 | 113.94326 | 17672 ft | 407 kts | 131° |
| 2026-05-08 05:51 | 22.00877 | 113.96433 | 18054 ft | 416 kts | 143° |
| 2026-05-08 05:51 | 21.98607 | 113.98432 | 18586 ft | 425 kts | 142° |
| 2026-05-08 05:51 | 21.96362 | 114.00479 | 19260 ft | 429 kts | 141° |
| 2026-05-08 05:52 | 21.94062 | 114.02518 | 19934 ft | 427 kts | 147° |
| 2026-05-08 05:52 | 21.91374 | 114.03874 | 20482 ft | 430 kts | 168° |
| 2026-05-08 05:52 | 21.88432 | 114.04409 | 21050 ft | 430 kts | 173° |
| 2026-05-08 05:52 | 21.85520 | 114.04896 | 21613 ft | 436 kts | 172° |
| 2026-05-08 05:53 | 21.82531 | 114.05431 | 22295 ft | 439 kts | 172° |
| 2026-05-08 05:53 | 21.79507 | 114.05995 | 22999 ft | 442 kts | 171° |
| 2026-05-08 05:53 | 21.76457 | 114.06575 | 23642 ft | 446 kts | 171° |
| 2026-05-08 05:53 | 21.73394 | 114.07161 | 24180 ft | 449 kts | 171° |
| 2026-05-08 05:54 | 21.70303 | 114.07751 | 24729 ft | 452 kts | 171° |
| 2026-05-08 05:54 | 21.67201 | 114.08341 | 25265 ft | 455 kts | 171° |
| 2026-05-08 05:54 | 21.64055 | 114.08705 | 25698 ft | 457 kts | 183° |
| 2026-05-08 05:54 | 21.60936 | 114.08144 | 26113 ft | 456 kts | 196° |
| 2026-05-08 05:55 | 21.57855 | 114.07239 | 26564 ft | 460 kts | 197° |
| 2026-05-08 05:55 | 21.54758 | 114.06342 | 27085 ft | 463 kts | 196° |
| 2026-05-08 05:55 | 21.51628 | 114.05486 | 27644 ft | 466 kts | 195° |
| 2026-05-08 05:55 | 21.48471 | 114.04662 | 28197 ft | 467 kts | 195° |
| 2026-05-08 05:56 | 21.45308 | 114.03843 | 28728 ft | 470 kts | 196° |
| 2026-05-08 05:56 | 21.42292 | 114.02628 | 29165 ft | 470 kts | 211° |
| 2026-05-08 05:56 | 21.39514 | 114.00703 | 29579 ft | 472 kts | 216° |
| 2026-05-08 05:56 | 21.36829 | 113.98695 | 29994 ft | 476 kts | 216° |
| 2026-05-08 05:57 | 21.34109 | 113.96662 | 30358 ft | 479 kts | 216° |
| 2026-05-08 05:57 | 21.31352 | 113.94642 | 30764 ft | 481 kts | 215° |
| 2026-05-08 05:57 | 21.28562 | 113.92640 | 31148 ft | 483 kts | 215° |
| 2026-05-08 05:57 | 21.25748 | 113.90648 | 31582 ft | 483 kts | 215° |
| 2026-05-08 05:58 | 21.22943 | 113.88674 | 32079 ft | 482 kts | 215° |
| 2026-05-08 05:58 | 21.20136 | 113.86700 | 32549 ft | 482 kts | 215° |
| 2026-05-08 05:58 | 21.17345 | 113.84732 | 32986 ft | 483 kts | 215° |
| 2026-05-08 05:58 | 21.14537 | 113.82752 | 33427 ft | 483 kts | 215° |
| 2026-05-08 05:59 | 21.11791 | 113.80701 | 33802 ft | 481 kts | 222° |
| 2026-05-08 05:59 | 21.09440 | 113.78152 | 33996 ft | 483 kts | 234° |
| 2026-05-08 05:59 | 21.07576 | 113.75152 | 34032 ft | 481 kts | 244° |
| 2026-05-08 06:00 | 21.05230 | 113.68531 | 34058 ft | 474 kts | 253° |
| 2026-05-08 06:00 | 21.03168 | 113.61861 | 34064 ft | 473 kts | 253° |
| 2026-05-08 06:01 | 21.01054 | 113.55185 | 34079 ft | 473 kts | 253° |
| 2026-05-08 06:01 | 20.98902 | 113.48527 | 34066 ft | 474 kts | 253° |
| 2026-05-08 06:02 | 20.96730 | 113.41859 | 34067 ft | 475 kts | 253° |
| 2026-05-08 06:02 | 20.94551 | 113.35180 | 34064 ft | 476 kts | 253° |
| 2026-05-08 06:03 | 20.92362 | 113.28475 | 34071 ft | 477 kts | 253° |
| 2026-05-08 06:03 | 20.90169 | 113.21761 | 34071 ft | 478 kts | 253° |
| 2026-05-08 06:04 | 20.87973 | 113.15051 | 34070 ft | 478 kts | 253° |
| 2026-05-08 06:04 | 20.85773 | 113.08339 | 34066 ft | 478 kts | 253° |
| 2026-05-08 06:05 | 20.83586 | 113.01673 | 34072 ft | 477 kts | 253° |
| 2026-05-08 06:05 | 20.81375 | 112.94948 | 34071 ft | 477 kts | 253° |
| 2026-05-08 06:06 | 20.79180 | 112.88280 | 34069 ft | 476 kts | 253° |
| 2026-05-08 06:06 | 20.76995 | 112.81651 | 34055 ft | 475 kts | 253° |
| 2026-05-08 06:07 | 20.74800 | 112.75003 | 34065 ft | 474 kts | 252° |
| 2026-05-08 06:07 | 20.72608 | 112.68373 | 34070 ft | 474 kts | 252° |
| 2026-05-08 06:08 | 20.70410 | 112.61734 | 34063 ft | 473 kts | 252° |
| 2026-05-08 06:08 | 20.68214 | 112.55110 | 34062 ft | 473 kts | 252° |
| 2026-05-08 06:09 | 20.66016 | 112.48490 | 34062 ft | 473 kts | 252° |
| 2026-05-08 06:09 | 20.63818 | 112.41878 | 34065 ft | 473 kts | 252° |
| 2026-05-08 06:10 | 20.61616 | 112.35266 | 34060 ft | 473 kts | 252° |
| 2026-05-08 06:10 | 20.59408 | 112.28642 | 34059 ft | 473 kts | 252° |
| 2026-05-08 06:11 | 20.57202 | 112.22033 | 34056 ft | 473 kts | 252° |
| 2026-05-08 06:11 | 20.56044 | 112.15241 | 34066 ft | 465 kts | 276° |
| 2026-05-08 06:11 | 20.56555 | 112.11850 | 34064 ft | 464 kts | 287° |
| 2026-05-08 06:12 | 20.57739 | 112.08673 | 34063 ft | 461 kts | 297° |
| 2026-05-08 06:12 | 20.60606 | 112.02571 | 34060 ft | 464 kts | 297° |
| 2026-05-08 06:13 | 20.66044 | 111.90735 | 34062 ft | 468 kts | 296° |
| 2026-05-08 06:14 | 20.68863 | 111.84475 | 34059 ft | 468 kts | 296° |
| 2026-05-08 06:14 | 20.71681 | 111.78205 | 34061 ft | 467 kts | 296° |
| 2026-05-08 06:15 | 20.74490 | 111.71956 | 34060 ft | 466 kts | 296° |
| 2026-05-08 06:15 | 20.77293 | 111.65715 | 34056 ft | 466 kts | 295° |
| 2026-05-08 06:16 | 20.80092 | 111.59474 | 34059 ft | 466 kts | 295° |
| 2026-05-08 06:16 | 20.82734 | 111.53172 | 34048 ft | 464 kts | 285° |
| 2026-05-08 06:16 | 20.83229 | 111.49817 | 34069 ft | 464 kts | 272° |
| 2026-05-08 06:17 | 20.82178 | 111.42984 | 34070 ft | 466 kts | 251° |
| 2026-05-08 06:17 | 20.79897 | 111.36481 | 34064 ft | 470 kts | 250° |
| 2026-05-08 06:18 | 20.77621 | 111.29953 | 34061 ft | 473 kts | 251° |
| 2026-05-08 06:18 | 20.75361 | 111.23290 | 34061 ft | 474 kts | 251° |
| 2026-05-08 06:19 | 20.73133 | 111.16660 | 34057 ft | 474 kts | 251° |
| 2026-05-08 06:19 | 20.70920 | 111.10081 | 34053 ft | 473 kts | 251° |
| 2026-05-08 06:20 | 20.68690 | 111.03474 | 34055 ft | 473 kts | 251° |
| 2026-05-08 06:20 | 20.66458 | 110.96870 | 34054 ft | 472 kts | 251° |
| 2026-05-08 06:21 | 20.64228 | 110.90280 | 34054 ft | 472 kts | 251° |
| 2026-05-08 06:21 | 20.62011 | 110.83687 | 34051 ft | 471 kts | 251° |
| 2026-05-08 06:22 | 20.59800 | 110.77096 | 34053 ft | 471 kts | 251° |
| 2026-05-08 06:22 | 20.57587 | 110.70512 | 34055 ft | 472 kts | 251° |
| 2026-05-08 06:23 | 20.55366 | 110.63917 | 34055 ft | 472 kts | 251° |
| 2026-05-08 06:23 | 20.53142 | 110.57323 | 34052 ft | 473 kts | 251° |
| 2026-05-08 06:24 | 20.50641 | 110.50822 | 34055 ft | 475 kts | 243° |
| 2026-05-08 06:24 | 20.47082 | 110.44878 | 34053 ft | 478 kts | 232° |
| 2026-05-08 06:25 | 20.42867 | 110.39403 | 34052 ft | 480 kts | 231° |
| 2026-05-08 06:25 | 20.38627 | 110.33951 | 34051 ft | 481 kts | 231° |
| 2026-05-08 06:26 | 20.34395 | 110.28428 | 34051 ft | 482 kts | 232° |
| 2026-05-08 06:26 | 20.30166 | 110.22892 | 34050 ft | 482 kts | 232° |
| 2026-05-08 06:27 | 20.25968 | 110.17328 | 34046 ft | 482 kts | 232° |
| 2026-05-08 06:27 | 20.21794 | 110.11741 | 34042 ft | 481 kts | 233° |
| 2026-05-08 06:28 | 20.17627 | 110.06172 | 34039 ft | 480 kts | 232° |
| 2026-05-08 06:28 | 20.13463 | 110.00623 | 34040 ft | 480 kts | 232° |
| 2026-05-08 06:29 | 20.09300 | 109.95085 | 34038 ft | 479 kts | 233° |
| 2026-05-08 06:29 | 20.05133 | 109.89547 | 34041 ft | 479 kts | 232° |
| 2026-05-08 06:30 | 20.00975 | 109.84027 | 34035 ft | 478 kts | 232° |
| 2026-05-08 06:30 | 19.96819 | 109.78513 | 34040 ft | 478 kts | 232° |
| 2026-05-08 06:31 | 19.92664 | 109.73006 | 34037 ft | 478 kts | 233° |
| 2026-05-08 06:31 | 19.88529 | 109.67531 | 34036 ft | 477 kts | 232° |
| 2026-05-08 06:32 | 19.84374 | 109.62035 | 34036 ft | 477 kts | 232° |
| 2026-05-08 06:32 | 19.80221 | 109.56544 | 34040 ft | 477 kts | 232° |
| 2026-05-08 06:33 | 19.76066 | 109.51058 | 34035 ft | 477 kts | 232° |
| 2026-05-08 06:33 | 19.71906 | 109.45570 | 34036 ft | 478 kts | 232° |
| 2026-05-08 06:34 | 19.67734 | 109.40070 | 34032 ft | 478 kts | 232° |
| 2026-05-08 06:34 | 19.63568 | 109.34583 | 34037 ft | 478 kts | 232° |
| 2026-05-08 06:35 | 19.59402 | 109.29102 | 34038 ft | 478 kts | 232° |
| 2026-05-08 06:35 | 19.55224 | 109.23608 | 34040 ft | 478 kts | 232° |
| 2026-05-08 06:36 | 19.51045 | 109.18123 | 34042 ft | 478 kts | 232° |
| 2026-05-08 06:36 | 19.46839 | 109.12662 | 34042 ft | 479 kts | 232° |
| 2026-05-08 06:37 | 19.42613 | 109.07194 | 34044 ft | 479 kts | 232° |
| 2026-05-08 06:37 | 19.38389 | 109.01725 | 34041 ft | 480 kts | 232° |
| 2026-05-08 06:38 | 19.34167 | 108.96259 | 34042 ft | 480 kts | 232° |
| 2026-05-08 06:38 | 19.29939 | 108.90787 | 34042 ft | 480 kts | 232° |
| 2026-05-08 06:39 | 19.25703 | 108.85313 | 34044 ft | 481 kts | 232° |
| 2026-05-08 06:39 | 19.21459 | 108.79836 | 34041 ft | 481 kts | 232° |
| 2026-05-08 06:40 | 19.17246 | 108.74404 | 34039 ft | 481 kts | 232° |
| 2026-05-08 06:40 | 19.13002 | 108.68934 | 34040 ft | 481 kts | 232° |
| 2026-05-08 06:41 | 19.08758 | 108.63468 | 34038 ft | 481 kts | 232° |
| 2026-05-08 06:41 | 19.04507 | 108.57997 | 34037 ft | 482 kts | 232° |
| 2026-05-08 06:42 | 19.00249 | 108.52524 | 34042 ft | 482 kts | 232° |
| 2026-05-08 06:42 | 18.95980 | 108.47039 | 34036 ft | 483 kts | 232° |
| 2026-05-08 06:43 | 18.91712 | 108.41561 | 34037 ft | 484 kts | 232° |
| 2026-05-08 06:43 | 18.87434 | 108.36076 | 34035 ft | 484 kts | 232° |
| 2026-05-08 06:44 | 18.83869 | 108.31509 | 34037 ft | 485 kts | 232° |
| 2026-05-08 06:44 | 18.79701 | 108.26174 | 34036 ft | 485 kts | 231° |
| 2026-05-08 06:45 | 18.75408 | 108.20682 | 34034 ft | 485 kts | 231° |
| 2026-05-08 06:45 | 18.71111 | 108.15191 | 34038 ft | 485 kts | 231° |
| 2026-05-08 06:46 | 18.66808 | 108.09697 | 34038 ft | 485 kts | 231° |
| 2026-05-08 06:46 | 18.62511 | 108.04215 | 34041 ft | 485 kts | 231° |
| 2026-05-08 06:47 | 18.58209 | 107.98731 | 34037 ft | 485 kts | 231° |
| 2026-05-08 06:47 | 18.53911 | 107.93258 | 34039 ft | 485 kts | 231° |
| 2026-05-08 06:48 | 18.49609 | 107.87783 | 34040 ft | 485 kts | 231° |
| 2026-05-08 06:48 | 18.45297 | 107.82301 | 34037 ft | 486 kts | 231° |
| 2026-05-08 06:49 | 18.40986 | 107.76823 | 34036 ft | 486 kts | 232° |
| 2026-05-08 06:49 | 18.36668 | 107.71342 | 34041 ft | 487 kts | 232° |
| 2026-05-08 06:50 | 18.32566 | 107.65694 | 34020 ft | 486 kts | 238° |
| 2026-05-08 06:50 | 18.28972 | 107.59695 | 33947 ft | 487 kts | 239° |
| 2026-05-08 06:51 | 18.25382 | 107.53656 | 33937 ft | 487 kts | 239° |
| 2026-05-08 06:51 | 18.21768 | 107.47654 | 33938 ft | 485 kts | 239° |
| 2026-05-08 06:52 | 18.18146 | 107.41678 | 33937 ft | 484 kts | 238° |
| 2026-05-08 06:52 | 18.14528 | 107.35716 | 33939 ft | 482 kts | 238° |
| 2026-05-08 06:53 | 18.10932 | 107.29788 | 33939 ft | 480 kts | 238° |
| 2026-05-08 06:53 | 18.07347 | 107.23882 | 33935 ft | 478 kts | 238° |
| 2026-05-08 06:54 | 18.03772 | 107.18007 | 33938 ft | 477 kts | 239° |
| 2026-05-08 06:54 | 18.00198 | 107.12147 | 33937 ft | 476 kts | 239° |
| 2026-05-08 06:55 | 17.96621 | 107.06283 | 33939 ft | 477 kts | 239° |
| 2026-05-08 06:55 | 17.93040 | 107.00414 | 33936 ft | 478 kts | 239° |
| 2026-05-08 06:56 | 17.89438 | 106.94517 | 33939 ft | 480 kts | 239° |
| 2026-05-08 06:56 | 17.85838 | 106.88615 | 33939 ft | 481 kts | 239° |
| 2026-05-08 06:57 | 17.82236 | 106.82684 | 33938 ft | 482 kts | 239° |
| 2026-05-08 06:57 | 17.78627 | 106.76746 | 33938 ft | 483 kts | 239° |
| 2026-05-08 06:58 | 17.75005 | 106.70796 | 33942 ft | 484 kts | 239° |
| 2026-05-08 06:58 | 17.71376 | 106.64840 | 33949 ft | 485 kts | 239° |
| 2026-05-08 06:59 | 17.67736 | 106.58871 | 33947 ft | 486 kts | 238° |
| 2026-05-08 06:59 | 17.64079 | 106.52902 | 33952 ft | 487 kts | 238° |
| 2026-05-08 07:00 | 17.60429 | 106.46958 | 33953 ft | 488 kts | 238° |
| 2026-05-08 07:00 | 17.56759 | 106.40983 | 33958 ft | 488 kts | 238° |
| 2026-05-08 07:01 | 17.53093 | 106.35014 | 33961 ft | 487 kts | 238° |
| 2026-05-08 07:01 | 17.49429 | 106.29058 | 33959 ft | 486 kts | 238° |
| 2026-05-08 07:02 | 17.45769 | 106.23107 | 33964 ft | 484 kts | 238° |
| 2026-05-08 07:02 | 17.42127 | 106.17195 | 33961 ft | 482 kts | 238° |
| 2026-05-08 07:03 | 17.38499 | 106.11308 | 33951 ft | 480 kts | 238° |
| 2026-05-08 07:03 | 17.34892 | 106.05438 | 33952 ft | 479 kts | 238° |
| 2026-05-08 07:04 | 17.31330 | 105.99550 | 33951 ft | 478 kts | 238° |
| 2026-05-08 07:04 | 17.27778 | 105.93670 | 33945 ft | 478 kts | 238° |
| 2026-05-08 07:05 | 17.24219 | 105.87793 | 33939 ft | 479 kts | 238° |
| 2026-05-08 07:05 | 17.20653 | 105.81915 | 33927 ft | 479 kts | 238° |
| 2026-05-08 07:06 | 17.17073 | 105.76025 | 33922 ft | 480 kts | 238° |
| 2026-05-08 07:06 | 17.13492 | 105.70134 | 33916 ft | 481 kts | 238° |
| 2026-05-08 07:07 | 17.09902 | 105.64234 | 33913 ft | 481 kts | 238° |
| 2026-05-08 07:07 | 17.06305 | 105.58326 | 33910 ft | 482 kts | 238° |
| 2026-05-08 07:08 | 17.02720 | 105.52445 | 33912 ft | 483 kts | 238° |
| 2026-05-08 07:08 | 16.99112 | 105.46530 | 33906 ft | 483 kts | 238° |
| 2026-05-08 07:09 | 16.95500 | 105.40612 | 33904 ft | 484 kts | 238° |
| 2026-05-08 07:09 | 16.91881 | 105.34689 | 33907 ft | 484 kts | 238° |
| 2026-05-08 07:10 | 16.88249 | 105.28748 | 33909 ft | 485 kts | 238° |
| 2026-05-08 07:10 | 16.84616 | 105.22813 | 33908 ft | 485 kts | 238° |
| 2026-05-08 07:11 | 16.80974 | 105.16882 | 33907 ft | 486 kts | 238° |
| 2026-05-08 07:11 | 16.77326 | 105.10950 | 33912 ft | 486 kts | 238° |
| 2026-05-08 07:12 | 16.73680 | 105.05021 | 33910 ft | 486 kts | 238° |
| 2026-05-08 07:12 | 16.70032 | 104.99089 | 33913 ft | 485 kts | 238° |
| 2026-05-08 07:13 | 16.66391 | 104.93175 | 33913 ft | 484 kts | 238° |
| 2026-05-08 07:13 | 16.62772 | 104.87301 | 33914 ft | 484 kts | 238° |
| 2026-05-08 07:14 | 16.59111 | 104.81363 | 33911 ft | 483 kts | 238° |
| 2026-05-08 07:14 | 16.55337 | 104.75574 | 33915 ft | 483 kts | 232° |
| 2026-05-08 07:15 | 16.50880 | 104.70331 | 33915 ft | 483 kts | 228° |
| 2026-05-08 07:15 | 16.46351 | 104.65161 | 33915 ft | 483 kts | 228° |
| 2026-05-08 07:16 | 16.41876 | 104.59990 | 33914 ft | 483 kts | 229° |
| 2026-05-08 07:16 | 16.37398 | 104.54782 | 33913 ft | 483 kts | 229° |
| 2026-05-08 07:17 | 16.32922 | 104.49577 | 33913 ft | 483 kts | 228° |
| 2026-05-08 07:17 | 16.28441 | 104.44373 | 33910 ft | 483 kts | 228° |
| 2026-05-08 07:18 | 16.23936 | 104.39175 | 33907 ft | 483 kts | 228° |
| 2026-05-08 07:18 | 16.19407 | 104.34011 | 33901 ft | 483 kts | 228° |
| 2026-05-08 07:19 | 16.14880 | 104.28847 | 33902 ft | 483 kts | 228° |
| 2026-05-08 07:19 | 16.10357 | 104.23681 | 33899 ft | 483 kts | 228° |
| 2026-05-08 07:20 | 16.05825 | 104.18509 | 33893 ft | 483 kts | 228° |
| 2026-05-08 07:20 | 16.01335 | 104.13312 | 33892 ft | 483 kts | 229° |
| 2026-05-08 07:21 | 15.96873 | 104.08091 | 33895 ft | 483 kts | 229° |
| 2026-05-08 07:21 | 15.92409 | 104.02874 | 33887 ft | 483 kts | 229° |
| 2026-05-08 07:22 | 15.87937 | 103.97662 | 33893 ft | 483 kts | 228° |
| 2026-05-08 07:22 | 15.83600 | 103.92616 | 33885 ft | 483 kts | 228° |
| 2026-05-08 07:23 | 15.79124 | 103.87412 | 33889 ft | 483 kts | 228° |
| 2026-05-08 07:23 | 15.74817 | 103.82409 | 33885 ft | 483 kts | 228° |
| 2026-05-08 07:24 | 15.70341 | 103.77211 | 33885 ft | 483 kts | 228° |
| 2026-05-08 07:24 | 15.65860 | 103.72012 | 33883 ft | 483 kts | 228° |
| 2026-05-08 07:25 | 15.61385 | 103.66822 | 33886 ft | 483 kts | 228° |
| 2026-05-08 07:26 | 15.54661 | 103.59032 | 33881 ft | 483 kts | 228° |
| 2026-05-08 07:26 | 15.50170 | 103.53836 | 33891 ft | 484 kts | 228° |
| 2026-05-08 07:27 | 15.45668 | 103.48635 | 33873 ft | 485 kts | 227° |
| 2026-05-08 07:27 | 15.41185 | 103.43451 | 33870 ft | 486 kts | 228° |
| 2026-05-08 07:28 | 15.36662 | 103.38224 | 33866 ft | 487 kts | 228° |
| 2026-05-08 07:28 | 15.32133 | 103.32997 | 33862 ft | 488 kts | 228° |
| 2026-05-08 07:29 | 15.27591 | 103.27756 | 33862 ft | 489 kts | 228° |
| 2026-05-08 07:29 | 15.23040 | 103.22509 | 33858 ft | 490 kts | 228° |
| 2026-05-08 07:30 | 15.18484 | 103.17261 | 33858 ft | 490 kts | 228° |
| 2026-05-08 07:30 | 15.13916 | 103.12002 | 33860 ft | 491 kts | 228° |
| 2026-05-08 07:31 | 15.09345 | 103.06742 | 33866 ft | 491 kts | 228° |
| 2026-05-08 07:31 | 15.04558 | 103.01714 | 33868 ft | 491 kts | 220° |
| 2026-05-08 07:32 | 14.99029 | 102.97669 | 33874 ft | 490 kts | 210° |
| 2026-05-08 07:32 | 14.93113 | 102.94156 | 33874 ft | 490 kts | 210° |
| 2026-05-08 07:33 | 14.87759 | 102.89883 | 33876 ft | 489 kts | 231° |
| 2026-05-08 07:33 | 14.85839 | 102.86989 | 33880 ft | 488 kts | 242° |
| 2026-05-08 07:33 | 14.84532 | 102.83759 | 33874 ft | 486 kts | 253° |
| 2026-05-08 07:34 | 14.82569 | 102.77058 | 33873 ft | 488 kts | 253° |
| 2026-05-08 07:34 | 14.80945 | 102.71499 | 33687 ft | 483 kts | 253° |
| 2026-05-08 07:34 | 14.79953 | 102.68180 | 33263 ft | 486 kts | 253° |
| 2026-05-08 07:35 | 14.78937 | 102.64835 | 32914 ft | 487 kts | 252° |
| 2026-05-08 07:35 | 14.77918 | 102.61511 | 32790 ft | 483 kts | 252° |
| 2026-05-08 07:35 | 14.76901 | 102.58212 | 32644 ft | 481 kts | 252° |
| 2026-05-08 07:35 | 14.75886 | 102.54922 | 32336 ft | 482 kts | 252° |
| 2026-05-08 07:36 | 14.74872 | 102.51636 | 32131 ft | 480 kts | 252° |
| 2026-05-08 07:36 | 14.73860 | 102.48357 | 31975 ft | 478 kts | 252° |
| 2026-05-08 07:36 | 14.72857 | 102.45103 | 31770 ft | 476 kts | 252° |
| 2026-05-08 07:36 | 14.71850 | 102.41843 | 31553 ft | 475 kts | 252° |
| 2026-05-08 07:37 | 14.70852 | 102.38608 | 31395 ft | 472 kts | 252° |
| 2026-05-08 07:37 | 14.69855 | 102.35379 | 31228 ft | 470 kts | 252° |
| 2026-05-08 07:37 | 14.68858 | 102.32155 | 31010 ft | 469 kts | 252° |
| 2026-05-08 07:37 | 14.67867 | 102.28947 | 30817 ft | 468 kts | 252° |
| 2026-05-08 07:38 | 14.66880 | 102.25753 | 30575 ft | 464 kts | 252° |
| 2026-05-08 07:38 | 14.65900 | 102.22588 | 30206 ft | 462 kts | 252° |
| 2026-05-08 07:38 | 14.64924 | 102.19436 | 29870 ft | 460 kts | 252° |
| 2026-05-08 07:38 | 14.63951 | 102.16299 | 29534 ft | 456 kts | 251° |
| 2026-05-08 07:39 | 14.62987 | 102.13188 | 29198 ft | 453 kts | 251° |
| 2026-05-08 07:39 | 14.62034 | 102.10107 | 28805 ft | 449 kts | 251° |
| 2026-05-08 07:39 | 14.61089 | 102.07056 | 28514 ft | 442 kts | 251° |
| 2026-05-08 07:39 | 14.60162 | 102.04069 | 28338 ft | 431 kts | 251° |
| 2026-05-08 07:40 | 14.59335 | 102.01402 | 28190 ft | 421 kts | 251° |
| 2026-05-08 07:40 | 14.58422 | 101.98462 | 27897 ft | 413 kts | 251° |
| 2026-05-08 07:40 | 14.57549 | 101.95655 | 27504 ft | 409 kts | 251° |
| 2026-05-08 07:40 | 14.56678 | 101.92858 | 27015 ft | 408 kts | 251° |
| 2026-05-08 07:41 | 14.55655 | 101.89843 | 26543 ft | 405 kts | 247° |
| 2026-05-08 07:41 | 14.54602 | 101.87162 | 26168 ft | 401 kts | 245° |
| 2026-05-08 07:41 | 14.53515 | 101.84526 | 25787 ft | 398 kts | 245° |
| 2026-05-08 07:41 | 14.52273 | 101.81526 | 25359 ft | 394 kts | 245° |
| 2026-05-08 07:42 | 14.51208 | 101.78933 | 24984 ft | 392 kts | 245° |
| 2026-05-08 07:42 | 14.50155 | 101.76345 | 24619 ft | 390 kts | 245° |
| 2026-05-08 07:42 | 14.49118 | 101.73775 | 24223 ft | 387 kts | 245° |
| 2026-05-08 07:42 | 14.48100 | 101.71244 | 23863 ft | 385 kts | 246° |
| 2026-05-08 07:43 | 14.47066 | 101.68665 | 23505 ft | 383 kts | 246° |
| 2026-05-08 07:43 | 14.46053 | 101.66140 | 23082 ft | 380 kts | 245° |
| 2026-05-08 07:43 | 14.45045 | 101.63629 | 22686 ft | 378 kts | 246° |
| 2026-05-08 07:43 | 14.44053 | 101.61156 | 22265 ft | 375 kts | 245° |
| 2026-05-08 07:44 | 14.43057 | 101.58675 | 21849 ft | 373 kts | 246° |
| 2026-05-08 07:44 | 14.42068 | 101.56212 | 21451 ft | 371 kts | 246° |
| 2026-05-08 07:44 | 14.41100 | 101.53802 | 21058 ft | 369 kts | 246° |
| 2026-05-08 07:44 | 14.40106 | 101.51330 | 20663 ft | 367 kts | 246° |
| 2026-05-08 07:45 | 14.39130 | 101.48902 | 20288 ft | 365 kts | 246° |
| 2026-05-08 07:45 | 14.38160 | 101.46491 | 19908 ft | 363 kts | 246° |
| 2026-05-08 07:45 | 14.37521 | 101.44903 | 19658 ft | 362 kts | 246° |
| 2026-05-08 07:45 | 14.36558 | 101.42512 | 19303 ft | 360 kts | 246° |
| 2026-05-08 07:46 | 14.35599 | 101.40132 | 18945 ft | 358 kts | 246° |
| 2026-05-08 07:46 | 14.34647 | 101.37766 | 18587 ft | 356 kts | 246° |
| 2026-05-08 07:46 | 14.33702 | 101.35414 | 18231 ft | 354 kts | 246° |
| 2026-05-08 07:46 | 14.32757 | 101.33070 | 17830 ft | 353 kts | 246° |
| 2026-05-08 07:47 | 14.31821 | 101.30747 | 17441 ft | 351 kts | 246° |
| 2026-05-08 07:47 | 14.30725 | 101.28533 | 16960 ft | 345 kts | 231° |
| 2026-05-08 07:47 | 14.29012 | 101.26822 | 16471 ft | 341 kts | 218° |
| 2026-05-08 07:47 | 14.27164 | 101.25278 | 16057 ft | 341 kts | 218° |
| 2026-05-08 07:48 | 14.25322 | 101.23749 | 15689 ft | 339 kts | 218° |
| 2026-05-08 07:48 | 14.23499 | 101.22228 | 15347 ft | 336 kts | 218° |
| 2026-05-08 07:48 | 14.21713 | 101.20728 | 14994 ft | 334 kts | 218° |
| 2026-05-08 07:48 | 14.19918 | 101.19212 | 14623 ft | 333 kts | 218° |
| 2026-05-08 07:49 | 14.18128 | 101.17694 | 14264 ft | 332 kts | 218° |
| 2026-05-08 07:49 | 14.16349 | 101.16183 | 13892 ft | 331 kts | 218° |
| 2026-05-08 07:49 | 14.14578 | 101.14675 | 13549 ft | 329 kts | 218° |
| 2026-05-08 07:49 | 14.12813 | 101.13174 | 13165 ft | 329 kts | 218° |
| 2026-05-08 07:50 | 14.11053 | 101.11673 | 12806 ft | 327 kts | 218° |
| 2026-05-08 07:50 | 14.09297 | 101.10179 | 12473 ft | 326 kts | 218° |
| 2026-05-08 07:50 | 14.07552 | 101.08698 | 12337 ft | 323 kts | 219° |
| 2026-05-08 07:50 | 14.05811 | 101.07322 | 12117 ft | 315 kts | 209° |
| 2026-05-08 07:51 | 14.03754 | 101.06546 | 11736 ft | 309 kts | 192° |
| 2026-05-08 07:51 | 14.01698 | 101.06046 | 11428 ft | 306 kts | 192° |
| 2026-05-08 07:51 | 13.99638 | 101.05508 | 11142 ft | 304 kts | 193° |
| 2026-05-08 07:51 | 13.97591 | 101.04954 | 10809 ft | 303 kts | 193° |
| 2026-05-08 07:52 | 13.95552 | 101.04398 | 10481 ft | 302 kts | 193° |
| 2026-05-08 07:52 | 13.93521 | 101.03841 | 10177 ft | 301 kts | 193° |
| 2026-05-08 07:52 | 13.92865 | 101.03659 | 10080 ft | 301 kts | 193° |
| 2026-05-08 07:52 | 13.92092 | 101.03447 | 9958 ft | 301 kts | 193° |
| 2026-05-08 07:53 | 13.90075 | 101.02893 | 9655 ft | 300 kts | 193° |
| 2026-05-08 07:53 | 13.88076 | 101.02345 | 9446 ft | 293 kts | 193° |
| 2026-05-08 07:53 | 13.86132 | 101.01812 | 9354 ft | 283 kts | 193° |
| 2026-05-08 07:53 | 13.84279 | 101.01250 | 9201 ft | 272 kts | 203° |
| 2026-05-08 07:54 | 13.82782 | 101.00102 | 8943 ft | 270 kts | 231° |
| 2026-05-08 07:54 | 13.81979 | 100.98369 | 8612 ft | 270 kts | 260° |
| 2026-05-08 07:54 | 13.82017 | 100.96480 | 8327 ft | 266 kts | 282° |
| 2026-05-08 07:54 | 13.82405 | 100.94638 | 8136 ft | 261 kts | 284° |
| 2026-05-08 07:55 | 13.82814 | 100.92824 | 7946 ft | 259 kts | 284° |
| 2026-05-08 07:55 | 13.83351 | 100.91074 | 7660 ft | 254 kts | 302° |
| 2026-05-08 07:55 | 13.84549 | 100.89782 | 7411 ft | 250 kts | 333° |
| 2026-05-08 07:55 | 13.86195 | 100.89298 | 7213 ft | 247 kts | 2° |
| 2026-05-08 07:56 | 13.87884 | 100.89490 | 7030 ft | 248 kts | 12° |
| 2026-05-08 07:56 | 13.89578 | 100.89836 | 6905 ft | 247 kts | 14° |
| 2026-05-08 07:56 | 13.91258 | 100.90201 | 6790 ft | 245 kts | 14° |
| 2026-05-08 07:56 | 13.92925 | 100.90569 | 6665 ft | 244 kts | 14° |
| 2026-05-08 07:57 | 13.94582 | 100.90938 | 6557 ft | 242 kts | 14° |
| 2026-05-08 07:57 | 13.96211 | 100.91303 | 6422 ft | 241 kts | 14° |
| 2026-05-08 07:57 | 13.97848 | 100.91672 | 6317 ft | 240 kts | 14° |
| 2026-05-08 07:57 | 13.99483 | 100.92040 | 6186 ft | 240 kts | 14° |
| 2026-05-08 07:58 | 14.01130 | 100.92234 | 6039 ft | 240 kts | 353° |
| 2026-05-08 07:58 | 14.02688 | 100.91580 | 5927 ft | 249 kts | 322° |
| 2026-05-08 07:58 | 14.03744 | 100.90163 | 5826 ft | 254 kts | 294° |
| 2026-05-08 07:58 | 14.04290 | 100.88420 | 5745 ft | 256 kts | 285° |
| 2026-05-08 07:59 | 14.04722 | 100.86636 | 5630 ft | 258 kts | 284° |
| 2026-05-08 07:59 | 14.05140 | 100.84835 | 5517 ft | 258 kts | 283° |
| 2026-05-08 07:59 | 14.05227 | 100.83022 | 5330 ft | 255 kts | 256° |
| 2026-05-08 07:59 | 14.04462 | 100.81442 | 5356 ft | 249 kts | 226° |
| 2026-05-08 08:00 | 14.03045 | 100.80474 | 5241 ft | 247 kts | 195° |
| 2026-05-08 08:00 | 14.01340 | 100.80373 | 4825 ft | 248 kts | 163° |
| 2026-05-08 08:00 | 13.99691 | 100.80806 | 4480 ft | 244 kts | 171° |
| 2026-05-08 08:00 | 13.97992 | 100.80823 | 4237 ft | 242 kts | 184° |
| 2026-05-08 08:01 | 13.96375 | 100.80586 | 4238 ft | 229 kts | 189° |
| 2026-05-08 08:01 | 13.94821 | 100.80258 | 4231 ft | 230 kts | 191° |
| 2026-05-08 08:01 | 13.93270 | 100.79906 | 4234 ft | 231 kts | 192° |
| 2026-05-08 08:01 | 13.91709 | 100.79528 | 4101 ft | 232 kts | 192° |
| 2026-05-08 08:02 | 13.90148 | 100.79130 | 3870 ft | 229 kts | 192° |
| 2026-05-08 08:02 | 13.88604 | 100.78729 | 3603 ft | 227 kts | 193° |
| 2026-05-08 08:02 | 13.87098 | 100.78337 | 3353 ft | 224 kts | 193° |
| 2026-05-08 08:02 | 13.85596 | 100.77943 | 3061 ft | 223 kts | 193° |
| 2026-05-08 08:03 | 13.84097 | 100.77551 | 2799 ft | 220 kts | 193° |
| 2026-05-08 08:03 | 13.82619 | 100.77161 | 2538 ft | 219 kts | 193° |
| 2026-05-08 08:03 | 13.81160 | 100.76777 | 2229 ft | 211 kts | 193° |
| 2026-05-08 08:03 | 13.79774 | 100.76412 | 1954 ft | 201 kts | 193° |
| 2026-05-08 08:04 | 13.78475 | 100.76071 | 1707 ft | 186 kts | 194° |
| 2026-05-08 08:04 | 13.77259 | 100.75749 | 1457 ft | 173 kts | 194° |
| 2026-05-08 08:04 | 13.76136 | 100.75455 | 1247 ft | 162 kts | 193° |
| 2026-05-08 08:04 | 13.75090 | 100.75182 | 1022 ft | 146 kts | 194° |
| 2026-05-08 08:05 | 13.74151 | 100.74934 | 877 ft | 142 kts | 194° |
| 2026-05-08 08:05 | 13.73204 | 100.74677 | 754 ft | 143 kts | 193° |
| 2026-05-08 08:05 | 13.72239 | 100.74436 | 573 ft | 141 kts | 192° |
| 2026-05-08 08:05 | 13.71267 | 100.74181 | 329 ft | 148 kts | 195° |
| 2026-05-08 08:06 | 13.70270 | 100.73914 | 123 ft | 148 kts | 194° |
| 2026-05-08 08:06 | 13.69311 | 100.73669 | 27 ft | 131 kts | 193° |
| 2026-05-08 08:06 | 13.68539 | 100.73458 | 17 ft | 95 kts | 192° |
| 2026-05-08 08:06 | 13.68051 | 100.73336 | 22 ft | 50 kts | 194° |
| 2026-05-08 08:07 | 13.67779 | 100.73257 | 23 ft | 35 kts | 195° |
| 2026-05-08 08:07 | 13.67663 | 100.73241 | 22 ft | 9 kts | 156° |
| 2026-05-08 08:07 | 13.67631 | 100.73293 | 22 ft | 9 kts | 104° |
| 2026-05-08 08:07 | 13.67617 | 100.73359 | 20 ft | 10 kts | 103° |
| 2026-05-08 08:08 | 13.67599 | 100.73434 | 19 ft | 12 kts | 105° |
| 2026-05-08 08:08 | 13.67574 | 100.73534 | 19 ft | 16 kts | 105° |
| 2026-05-08 08:08 | 13.67542 | 100.73646 | 18 ft | 16 kts | 105° |
| 2026-05-08 08:08 | 13.67521 | 100.73733 | 18 ft | 9 kts | 93° |
| 2026-05-08 08:09 | 13.67568 | 100.73773 | 18 ft | 10 kts | 14° |
| 2026-05-08 08:09 | 13.67644 | 100.73794 | 18 ft | 14 kts | 14° |
| 2026-05-08 08:09 | 13.67767 | 100.73826 | 18 ft | 22 kts | 14° |
| 2026-05-08 08:09 | 13.67934 | 100.73869 | 18 ft | 25 kts | 14° |
| 2026-05-08 08:10 | 13.68103 | 100.73913 | 18 ft | 25 kts | 15° |
| 2026-05-08 08:10 | 13.68274 | 100.73959 | 18 ft | 25 kts | 14° |
| 2026-05-08 08:10 | 13.68444 | 100.74004 | 19 ft | 25 kts | 15° |
| 2026-05-08 08:10 | 13.68615 | 100.74048 | 19 ft | 25 kts | 13° |
| 2026-05-08 08:11 | 13.68785 | 100.74093 | 19 ft | 25 kts | 15° |
| 2026-05-08 08:11 | 13.68956 | 100.74138 | 18 ft | 25 kts | 14° |
| 2026-05-08 08:11 | 13.69126 | 100.74183 | 18 ft | 25 kts | 15° |
| 2026-05-08 08:11 | 13.69297 | 100.74228 | 18 ft | 25 kts | 14° |
| 2026-05-08 08:12 | 13.69442 | 100.74265 | 18 ft | 11 kts | 15° |
| 2026-05-08 08:12 | 13.69486 | 100.74309 | 18 ft | 10 kts | 81° |
| 2026-05-08 08:12 | 13.69479 | 100.74377 | 18 ft | 10 kts | 103° |
| 2026-05-08 08:12 | 13.69463 | 100.74443 | 18 ft | 10 kts | 105° |
| 2026-05-08 08:13 | 13.69446 | 100.74509 | 18 ft | 10 kts | 105° |
| 2026-05-08 08:13 | 13.69464 | 100.74568 | 18 ft | 10 kts | 32° |
| 2026-05-08 08:13 | 13.69527 | 100.74589 | 18 ft | 10 kts | 14° |
| 2026-05-08 08:13 | 13.69581 | 100.74612 | 18 ft | 7 kts | 52° |
| 2026-05-08 08:14 | 13.69583 | 100.74662 | 18 ft | 6 kts | 102° |
| 2026-05-08 08:14 | 13.69577 | 100.74686 | 18 ft | 3 kts | 105° |
| 2026-05-08 08:14 | 13.69574 | 100.74696 | 18 ft | 0 kts | 104° |